Time;durP1;ratioP1;P1;durP2;ratioP2;P2;SDS_P1;SDS_P2;PMS_P1;PMS_P2;Temp;Humidity;BMP_temperature;BMP_pressure;BME280_temperature;BME280_humidity;BME280_pressure;Samples;Min_cycle;Max_cycle;Signal;HPM_P1;HPM_P2
2022/06/05 00:00:31;;;;;;;3.58;1.60;;;;;;;14.41;100.00;100857.56;1761051;79;20945;-44
2022/06/05 00:03:03;;;;;;;5.33;1.82;;;;;;;14.40;99.33;100848.05;1767006;79;21711;-44
2022/06/05 00:06:03;;;;;;;8.83;1.65;;;;;;;14.41;97.47;100838.03;1786925;79;20873;-43
2022/06/05 00:08:56;;;;;;;3.72;1.52;;;;;;;14.44;96.12;100837.94;1772946;80;21466;-43
2022/06/05 00:11:23;;;;;;;2.60;2.00;;;;;;;14.44;94.72;100836.64;1779841;79;20881;-44
2022/06/05 00:13:54;;;;;;;2.15;1.30;;;;;;;14.45;95.04;100831.84;1746618;79;21503;-44
2022/06/05 00:16:25;;;;;;;4.78;1.62;;;;;;;14.42;94.83;100827.15;1770452;79;20941;-44
2022/06/05 00:18:54;;;;;;;5.65;2.55;;;;;;;14.38;93.52;100818.56;1774987;80;20964;-44
2022/06/05 00:21:20;;;;;;;1.60;1.50;;;;;;;14.35;92.56;100818.66;1780290;79;21141;-43
2022/06/05 00:23:47;;;;;;;5.45;1.98;;;;;;;14.32;92.37;100815.70;1688014;82;20893;-44
2022/06/05 00:26:50;;;;;;;7.65;2.12;;;;;;;14.30;92.11;100816.20;1765667;79;20946;-44
2022/06/05 00:29:56;;;;;;;3.22;1.60;;;;;;;14.26;92.12;100811.11;1751413;79;21447;-44
2022/06/05 00:32:45;;;;;;;10.90;1.87;;;;;;;14.22;92.54;100815.54;1755849;79;20874;-44
2022/06/05 00:35:16;;;;;;;4.08;1.60;;;;;;;14.17;92.75;100811.78;1743584;82;21166;-44
2022/06/05 00:37:54;;;;;;;2.47;1.52;;;;;;;14.13;92.89;100805.39;1812392;79;21530;-44
2022/06/05 00:40:30;;;;;;;2.72;1.47;;;;;;;14.13;93.63;100808.00;1783465;79;20956;-44
2022/06/05 00:42:58;;;;;;;;;;;;;;;14.10;94.23;100805.02;1762660;79;21101;-44
2022/06/05 00:45:26;;;;;;;12.43;1.85;;;;;;;14.07;94.81;100807.71;1759757;81;20069;-44
2022/06/05 00:47:53;;;;;;;2.52;1.75;;;;;;;14.03;95.12;100783.53;1753589;81;21736;-44
2022/06/05 00:50:24;;;;;;;4.58;1.87;;;;;;;14.03;95.59;100782.67;1744584;80;20948;-44
2022/06/05 00:52:55;;;;;;;3.27;1.72;;;;;;;14.01;96.18;100778.80;1749319;79;20956;-44
2022/06/05 00:55:25;;;;;;;2.87;1.72;;;;;;;14.00;96.66;100778.85;1742724;82;20984;-44
2022/06/05 00:57:53;;;;;;;5.08;2.00;;;;;;;13.96;97.02;100778.54;1744984;80;20976;-44
2022/06/05 01:00:24;;;;;;;5.95;2.17;;;;;;;13.93;97.63;100776.43;1749712;80;21265;-44
2022/06/05 01:02:55;;;;;;;4.22;1.77;;;;;;;13.90;97.93;100780.85;1722924;82;21514;-44
2022/06/05 01:05:25;;;;;;;1.75;1.50;;;;;;;13.86;98.24;100780.53;1748020;82;21012;-44
2022/06/05 01:07:52;;;;;;;5.80;1.42;;;;;;;13.83;98.44;100789.73;1753035;80;20976;-43
2022/06/05 01:10:21;;;;;;;3.98;1.50;;;;;;;13.76;98.20;100791.16;1749591;82;20971;-44
2022/06/05 01:13:15;;;;;;;3.40;1.70;;;;;;;13.73;98.43;100798.22;1755077;80;22201;-43
2022/06/05 01:15:58;;;;;;;3.42;1.70;;;;;;;13.72;98.61;100793.45;1747274;82;20944;-44
2022/06/05 01:18:32;;;;;;;4.12;1.47;;;;;;;13.71;99.39;100789.60;1749521;80;20944;-44
2022/06/05 01:21:10;;;;;;;2.83;1.90;;;;;;;13.70;100.00;100800.44;1756236;80;20955;-45
2022/06/05 01:24:23;;;;;;;8.73;1.75;;;;;;;13.69;100.00;100797.44;1783715;80;20896;-44
2022/06/05 01:27:04;;;;;;;5.75;1.90;;;;;;;13.68;100.00;100795.72;1757239;80;21076;-44
2022/06/05 01:29:41;;;;;;;5.00;1.87;;;;;;;13.64;100.00;100790.20;1749373;80;22240;-44
2022/06/05 01:32:15;;;;;;;2.75;1.77;;;;;;;13.61;100.00;100781.18;1772218;80;22192;-44
2022/06/05 01:34:50;;;;;;;2.77;1.52;;;;;;;13.59;100.00;100782.51;1783841;80;20908;-45
2022/06/05 01:37:24;;;;;;;7.10;1.90;;;;;;;13.58;100.00;100781.27;1755427;80;20825;-44
2022/06/05 01:40:18;;;;;;;2.05;1.62;;;;;;;13.56;100.00;100782.59;1751867;80;21268;-44
2022/06/05 01:43:06;;;;;;;3.92;1.90;;;;;;;13.55;100.00;100780.05;1748823;81;21434;-44
2022/06/05 01:45:45;;;;;;;3.90;1.45;;;;;;;13.56;99.83;100777.39;1747716;80;20929;-44
2022/06/05 01:48:24;;;;;;;2.02;1.90;;;;;;;13.58;98.69;100774.77;1745399;80;20937;-45
2022/06/05 01:50:58;;;;;;;6.70;1.92;;;;;;;13.57;97.91;100771.30;1752948;80;20979;-44
2022/06/05 01:53:32;;;;;;;3.25;1.52;;;;;;;13.55;97.35;100770.48;1719588;83;21017;-44
2022/06/05 01:56:06;;;;;;;4.80;1.98;;;;;;;13.55;97.23;100769.64;1724447;83;20915;-44
2022/06/05 01:58:38;;;;;;;2.62;1.60;;;;;;;13.53;97.55;100775.33;1745524;81;20892;-44
2022/06/05 02:01:09;;;;;;;3.67;1.70;;;;;;;13.48;98.01;100779.34;1745163;81;21034;-44
2022/06/05 02:03:44;;;;;;;3.80;1.90;;;;;;;13.43;98.36;100775.55;1741594;80;21003;-44
2022/06/05 02:06:14;;;;;;;5.72;1.67;;;;;;;13.39;98.86;100765.22;1731756;81;21967;-45
2022/06/05 02:08:50;;;;;;;2.98;1.60;;;;;;;13.36;99.54;100770.07;1742472;81;20955;-44
2022/06/05 02:11:28;;;;;;;2.00;1.90;;;;;;;13.34;100.00;100767.96;1746653;81;21098;-44
2022/06/05 02:14:06;;;;;;;4.15;1.50;;;;;;;13.34;100.00;100762.76;1728530;81;20952;-44
2022/06/05 02:16:33;;;;;;;3.40;1.60;;;;;;;13.36;100.00;100755.31;1724744;83;20916;-44
2022/06/05 02:19:05;;;;;;;2.70;1.77;;;;;;;13.40;100.00;100753.50;1726342;81;21264;-44
2022/06/05 02:21:33;;;;;;;15.08;1.72;;;;;;;13.46;100.00;100754.66;1726807;81;20944;-44
2022/06/05 02:24:00;;;;;;;3.85;1.37;;;;;;;13.53;100.00;100760.56;1725210;81;20964;-44
2022/06/05 02:26:27;;;;;;;2.15;1.62;;;;;;;13.60;100.00;100769.91;1672888;83;21030;-44
2022/06/05 02:28:56;;;;;;;4.08;1.70;;;;;;;13.65;100.00;100769.80;1724601;83;20892;-44
2022/06/05 02:31:30;;;;;;;5.10;1.62;;;;;;;13.73;100.00;100763.09;1733118;81;21906;-44
2022/06/05 02:34:31;;;;;;;3.70;1.30;;;;;;;13.81;99.56;100761.13;1754698;79;20873;-44
2022/06/05 02:37:11;;;;;;;3.05;1.65;;;;;;;13.88;98.84;100752.72;1753701;80;20936;-45
2022/06/05 02:39:58;;;;;;;2.17;1.35;;;;;;;13.95;98.49;100754.25;1754550;81;20900;-45
2022/06/05 02:42:40;;;;;;;7.37;1.70;;;;;;;13.99;97.91;100749.36;1733987;81;21012;-44
2022/06/05 02:45:30;;;;;;;5.35;1.70;;;;;;;14.04;97.15;100751.41;1695974;83;21141;-44
2022/06/05 02:48:25;;;;;;;2.10;1.27;;;;;;;14.09;96.41;100742.14;1744010;79;20913;-44
2022/06/05 02:51:14;;;;;;;7.90;1.50;;;;;;;14.15;95.60;100742.42;1640662;86;21038;-45
2022/06/05 02:53:58;;;;;;;8.40;1.50;;;;;;;14.19;94.83;100745.34;1744951;79;20987;-44
2022/06/05 02:56:28;;;;;;;4.22;1.22;;;;;;;14.23;94.22;100740.02;1754845;81;20888;-44
2022/06/05 02:58:57;;;;;;;1.60;1.50;;;;;;;14.29;93.95;100738.98;1754368;81;21122;-44
2022/06/05 03:04:09;;;;;;;6.00;1.63;;;;;;;14.42;93.45;100745.12;1725112;81;21450;-44
2022/06/05 03:06:39;;;;;;;5.35;1.95;;;;;;;14.51;93.38;100744.83;1724637;83;21127;-44
2022/06/05 03:09:07;;;;;;;2.42;1.35;;;;;;;14.57;93.33;100743.36;1724684;83;20888;-44
2022/06/05 03:11:33;;;;;;;2.83;1.12;;;;;;;14.62;93.18;100741.90;1725278;81;21893;-44
2022/06/05 03:14:01;;;;;;;5.62;1.52;;;;;;;14.68;93.04;100744.34;1725163;81;20992;-44
2022/06/05 03:16:30;;;;;;;6.37;1.82;;;;;;;14.71;92.70;100742.97;1724767;83;20979;-44
2022/06/05 03:18:58;;;;;;;6.67;1.20;;;;;;;14.77;92.65;100749.72;1724709;82;20980;-44
2022/06/05 03:21:25;;;;;;;3.25;1.40;;;;;;;14.85;92.35;100746.88;1728550;81;20877;-44
2022/06/05 03:23:51;;;;;;;3.92;1.40;;;;;;;14.91;91.75;100735.81;1724769;83;21282;-44
2022/06/05 03:26:18;;;;;;;13.98;1.60;;;;;;;14.97;91.57;100743.89;1737191;81;20952;-44
2022/06/05 03:28:45;;;;;;;12.63;1.60;;;;;;;15.03;91.38;100754.11;1754700;81;20936;-44
2022/06/05 03:31:12;;;;;;;5.12;1.30;;;;;;;15.09;91.11;100759.13;1751538;81;20964;-44
2022/06/05 03:33:38;;;;;;;3.85;1.50;;;;;;;15.16;91.17;100759.78;1726563;81;21422;-45
2022/06/05 03:36:11;;;;;;;3.12;1.52;;;;;;;15.25;90.59;100762.98;1724763;83;20979;-45
2022/06/05 03:38:39;;;;;;;9.03;1.40;;;;;;;15.34;90.51;100760.92;1725166;81;20936;-46
2022/06/05 03:41:08;;;;;;;2.42;1.60;;;;;;;15.48;90.04;100760.45;1743627;80;20959;-44
2022/06/05 03:43:37;;;;;;;7.37;1.77;;;;;;;15.63;89.42;100751.24;1750331;81;21211;-44
2022/06/05 03:46:08;;;;;;;6.67;1.75;;;;;;;15.82;88.76;100741.94;1696185;83;20892;-44
2022/06/05 03:48:37;;;;;;;3.22;1.62;;;;;;;16.00;87.97;100729.53;1724674;83;21323;-44
2022/06/05 03:51:11;;;;;;;6.28;1.80;;;;;;;16.20;87.15;100726.20;1725356;81;20971;-44
2022/06/05 03:53:39;;;;;;;8.45;2.20;;;;;;;16.47;86.79;100732.58;1729256;81;21024;-44
2022/06/05 03:56:19;;;;;;;6.78;1.87;;;;;;;16.81;85.86;100731.70;1776596;80;20994;-43
2022/06/05 03:58:48;;;;;;;7.12;1.90;;;;;;;17.17;84.57;100727.66;1783554;79;20924;-46
2022/06/05 04:01:16;;;;;;;2.17;2.00;;;;;;;17.53;82.49;100720.00;1782544;79;21139;-44
2022/06/05 04:03:43;;;;;;;9.00;2.25;;;;;;;17.73;80.21;100725.30;1778214;80;21512;-44
2022/06/05 04:06:11;;;;;;;5.03;2.12;;;;;;;17.86;79.74;100726.44;1752696;80;20960;-45
2022/06/05 04:08:39;;;;;;;4.17;1.72;;;;;;;17.96;78.88;100732.11;1752401;81;20972;-45
2022/06/05 04:11:11;;;;;;;5.70;1.42;;;;;;;18.04;78.27;100740.50;1768182;80;20905;-45
2022/06/05 04:13:38;;;;;;;2.05;1.45;;;;;;;18.08;76.90;100735.98;1781317;80;21236;-45
2022/06/05 04:16:19;;;;;;;1.42;1.32;;;;;;;18.13;76.35;100732.69;1783558;80;20916;-45
2022/06/05 04:18:46;;;;;;;9.95;2.37;;;;;;;18.17;75.88;100729.48;1783770;79;20988;-44
2022/06/05 04:21:25;;;;;;;2.15;1.50;;;;;;;18.21;75.85;100719.24;1782753;80;20944;-45
2022/06/05 04:23:52;;;;;;;2.50;1.75;;;;;;;18.26;76.02;100722.49;1777527;80;20971;-45
2022/06/05 04:26:22;;;;;;;3.50;1.57;;;;;;;18.41;75.83;100724.85;1752798;80;21243;-45
2022/06/05 04:28:52;;;;;;;5.83;1.50;;;;;;;18.60;75.72;100731.41;1762086;80;20925;-45
2022/06/05 04:31:32;;;;;;;5.50;1.60;;;;;;;18.81;74.91;100733.88;1771090;80;21015;-45
2022/06/05 04:34:02;;;;;;;4.25;1.42;;;;;;;19.02;73.44;100729.41;1780511;80;20904;-43
2022/06/05 04:36:29;;;;;;;5.10;1.42;;;;;;;19.13;72.00;100721.45;1782550;80;21494;-45
2022/06/05 04:38:56;;;;;;;6.35;1.45;;;;;;;19.19;71.36;100715.44;1783559;80;20984;-45
2022/06/05 04:41:24;;;;;;;9.28;1.70;;;;;;;19.26;70.05;100721.68;1783636;80;21023;-46
2022/06/05 04:43:52;;;;;;;5.70;1.12;;;;;;;19.32;70.04;100721.36;1753995;80;21506;-46
2022/06/05 04:46:20;;;;;;;3.70;1.40;;;;;;;19.43;69.88;100713.80;1768864;80;21521;-46
2022/06/05 04:48:47;;;;;;;3.98;1.30;;;;;;;19.56;69.17;100716.64;1752743;82;20979;-45
2022/06/05 04:51:18;;;;;;;3.45;1.30;;;;;;;19.67;68.49;100702.95;1752498;81;21082;-46
2022/06/05 04:53:45;;;;;;;5.28;1.52;;;;;;;19.84;69.31;100698.11;1752667;81;21334;-45
2022/06/05 04:56:15;;;;;;;4.22;1.57;;;;;;;19.95;67.08;100699.71;1759600;81;20940;-46
2022/06/05 04:58:42;;;;;;;5.15;1.55;;;;;;;19.94;67.17;100705.06;1707047;84;21055;-46
2022/06/05 05:01:15;;;;;;;4.53;1.40;;;;;;;19.92;66.48;100704.30;1772506;80;21008;-44
2022/06/05 05:03:43;;;;;;;2.37;1.37;;;;;;;19.87;66.31;100708.93;1775102;80;21776;-45
2022/06/05 05:06:10;;;;;;;4.25;1.32;;;;;;;19.80;66.28;100709.23;1774916;80;21011;-45
2022/06/05 05:08:36;;;;;;;4.00;1.60;;;;;;;19.77;66.37;100713.34;1759992;80;20969;-45
2022/06/05 05:11:04;;;;;;;5.67;1.50;;;;;;;19.71;66.62;100714.98;1744415;81;20885;-45
2022/06/05 05:13:32;;;;;;;8.13;1.92;;;;;;;19.73;66.74;100712.30;1744361;82;20976;-45
2022/06/05 05:15:59;;;;;;;4.47;1.98;;;;;;;19.81;66.96;100710.92;1744408;81;21250;-45
2022/06/05 05:18:25;;;;;;;12.45;4.90;;;;;;;19.91;66.98;100705.23;1733881;82;20897;-45
2022/06/05 05:20:52;;;;;;;4.35;2.80;;;;;;;20.04;66.46;100705.42;1764365;81;21001;-45
2022/06/05 05:23:19;;;;;;;2.92;2.08;;;;;;;20.05;66.25;100703.17;1773414;81;20968;-44
2022/06/05 05:25:47;;;;;;;4.15;2.02;;;;;;;20.05;66.52;100699.23;1773460;81;20972;-45
2022/06/05 05:28:15;;;;;;;12.82;5.60;;;;;;;20.09;67.06;100695.05;1707319;83;21330;-45
2022/06/05 05:30:45;;;;;;;2.98;2.77;;;;;;;20.10;66.41;100695.43;1773196;80;21499;-45
2022/06/05 05:33:13;;;;;;;9.05;2.90;;;;;;;20.06;66.88;100693.88;1772547;80;20981;-45
2022/06/05 05:35:40;;;;;;;3.70;2.45;;;;;;;20.05;66.97;100691.34;1773286;81;21032;-44
2022/06/05 05:38:06;;;;;;;8.63;1.98;;;;;;;20.00;66.70;100699.47;1773399;80;21121;-45
2022/06/05 05:43:19;;;;;;;3.90;1.32;;;;;;;19.97;68.32;100707.52;1706471;83;21359;-45
2022/06/05 05:45:46;;;;;;;4.25;1.20;;;;;;;20.27;68.10;100696.73;1773521;80;20953;-45
2022/06/05 05:48:13;;;;;;;2.70;1.50;;;;;;;20.52;67.14;100697.06;1773561;80;21465;-44
2022/06/05 05:50:45;;;;;;;3.92;1.12;;;;;;;20.78;66.36;100692.55;1769134;79;20953;-45
2022/06/05 05:53:12;;;;;;;1.70;1.60;;;;;;;21.02;65.53;100696.03;1785605;79;21063;-45
2022/06/05 05:55:39;;;;;;;3.77;1.32;;;;;;;21.25;65.25;100691.56;1708755;82;20933;-45
2022/06/05 05:58:05;;;;;;;7.08;1.67;;;;;;;21.53;64.80;100691.70;1752094;81;20965;-45
2022/06/05 06:00:33;;;;;;;5.58;1.47;;;;;;;21.86;62.85;100689.27;1702559;82;20939;-46
2022/06/05 06:03:00;;;;;;;3.45;1.10;;;;;;;22.19;61.72;100690.70;1784721;79;20984;-46
2022/06/05 06:05:26;;;;;;;3.50;1.55;;;;;;;22.56;59.73;100698.05;1759787;81;21175;-46
2022/06/05 06:07:54;;;;;;;6.62;1.50;;;;;;;22.89;58.34;100693.30;1756619;80;20936;-46
2022/06/05 06:10:21;;;;;;;1.75;1.30;;;;;;;23.13;56.95;100685.53;1744157;82;21510;-46
2022/06/05 06:12:48;;;;;;;7.08;1.47;;;;;;;23.22;56.29;100682.25;1769628;79;21436;-45
2022/06/05 06:15:16;;;;;;;4.00;1.40;;;;;;;23.28;56.24;100680.17;1689992;83;21016;-46
2022/06/05 06:17:43;;;;;;;3.90;1.50;;;;;;;23.31;56.40;100678.17;1744314;82;21245;-47
2022/06/05 06:20:12;;;;;;;5.03;1.47;;;;;;;23.48;56.09;100678.78;1727481;82;20994;-44
2022/06/05 06:22:41;;;;;;;4.33;1.52;;;;;;;23.75;55.87;100671.22;1772166;79;20897;-45
2022/06/05 06:25:09;;;;;;;3.85;1.50;;;;;;;23.91;54.10;100681.05;1773060;81;20887;-45
2022/06/05 06:27:35;;;;;;;5.67;1.40;;;;;;;23.89;53.95;100676.34;1772962;81;21545;-45
2022/06/05 06:30:05;;;;;;;3.50;1.37;;;;;;;23.78;53.75;100678.92;1773170;81;21573;-45
2022/06/05 06:32:35;;;;;;;5.05;1.42;;;;;;;23.59;53.67;100672.28;1773256;79;20956;-45
2022/06/05 06:35:02;;;;;;;1.62;1.52;;;;;;;23.46;54.15;100667.02;1772471;79;21494;-45
2022/06/05 06:37:29;;;;;;;2.58;1.40;;;;;;;23.43;54.67;100677.80;1708362;82;20870;-45
2022/06/05 06:39:56;;;;;;;5.47;1.45;;;;;;;23.37;54.68;100670.31;1696711;84;21000;-45
2022/06/05 06:42:23;;;;;;;2.83;1.50;;;;;;;23.05;55.47;100686.05;1767779;79;21231;-45
2022/06/05 06:44:50;;;;;;;3.50;1.60;;;;;;;22.94;56.62;100681.95;1776365;79;20913;-45
2022/06/05 06:47:17;;;;;;;4.42;1.65;;;;;;;22.96;57.14;100680.91;1786992;79;20948;-45
2022/06/05 06:49:44;;;;;;;7.92;1.60;;;;;;;23.17;56.61;100671.17;1723506;82;20965;-45
2022/06/05 06:52:10;;;;;;;1.67;1.40;;;;;;;23.24;55.33;100664.97;1759428;79;20952;-45
2022/06/05 06:54:37;;;;;;;6.70;1.67;;;;;;;23.19;55.95;100672.37;1708171;83;21257;-44
2022/06/05 06:57:05;;;;;;;5.03;1.82;;;;;;;23.16;56.37;100681.36;1726497;82;20929;-44
2022/06/05 06:59:33;;;;;;;4.28;1.57;;;;;;;23.07;56.69;100689.88;1701430;82;20913;-45
2022/06/05 07:01:59;;;;;;;4.28;1.90;;;;;;;22.99;58.13;100693.07;1799149;79;20937;-45
2022/06/05 07:04:28;;;;;;;3.95;1.60;;;;;;;23.08;58.22;100696.86;1751102;79;20956;-46
2022/06/05 07:06:55;;;;;;;2.98;1.42;;;;;;;23.21;57.38;100695.55;1759584;79;22020;-45
2022/06/05 07:09:22;;;;;;;2.98;1.70;;;;;;;23.27;56.89;100696.50;1768019;80;20928;-44
2022/06/05 07:11:49;;;;;;;3.62;1.52;;;;;;;23.31;57.30;100699.76;1772833;79;20954;-45
2022/06/05 07:14:16;;;;;;;6.12;1.50;;;;;;;23.31;58.29;100699.76;1800279;79;21015;-45
2022/06/05 07:16:42;;;;;;;8.58;1.45;;;;;;;23.12;58.40;100701.00;1729279;82;20985;-45
2022/06/05 07:19:09;;;;;;;7.40;1.32;;;;;;;22.92;59.55;100707.59;1784863;79;21949;-45
2022/06/05 07:21:36;;;;;;;6.00;1.40;;;;;;;22.76;59.96;100707.78;1812353;79;20920;-45
2022/06/05 07:24:03;;;;;;;5.65;1.47;;;;;;;22.66;61.52;100716.31;1776290;79;20994;-45
2022/06/05 07:26:32;;;;;;;1.40;1.30;;;;;;;22.61;62.72;100721.05;1733186;80;20958;-45
2022/06/05 07:28:58;;;;;;;7.75;1.80;;;;;;;22.47;62.25;100718.45;1770796;79;20913;-45
2022/06/05 07:31:27;;;;;;;2.45;1.65;;;;;;;22.29;62.46;100713.86;1771223;79;21373;-45
2022/06/05 07:33:55;;;;;;;8.98;1.92;;;;;;;22.25;62.75;100712.73;1695474;82;21478;-45
2022/06/05 07:36:22;;;;;;;4.78;1.57;;;;;;;22.26;60.69;100722.80;1809539;79;20992;-45
2022/06/05 07:38:48;;;;;;;10.20;3.75;;;;;;;22.22;61.77;100723.94;1783783;79;21015;-45
2022/06/05 07:41:26;;;;;;;4.58;1.85;;;;;;;22.33;61.41;100727.21;1761687;79;20918;-45
2022/06/05 07:43:53;;;;;;;7.12;1.50;;;;;;;22.40;61.12;100723.23;1773381;79;21229;-44
2022/06/05 07:46:19;;;;;;;6.50;4.10;;;;;;;22.48;61.61;100724.95;1767325;79;20958;-45
2022/06/05 07:48:46;;;;;;;1.70;1.50;;;;;;;22.55;61.36;100723.23;1756549;79;21057;-45
2022/06/05 07:56:50;;;;;;;6.50;2.17;;;;;;;22.81;58.14;100729.42;1699941;82;21288;-47
2022/06/05 07:59:17;;;;;;;6.58;2.02;;;;;;;22.72;59.00;100728.23;1709134;82;20950;-45
2022/06/05 08:01:44;;;;;;;3.70;2.10;;;;;;;22.62;59.91;100733.74;1702370;82;21005;-46
2022/06/05 08:04:11;;;;;;;11.08;3.83;;;;;;;22.54;60.29;100730.28;1714613;81;20949;-45
2022/06/05 08:06:39;;;;;;;8.50;3.17;;;;;;;22.60;60.26;100731.68;1714004;82;20888;-45
2022/06/05 08:12:02;;;;;;;5.42;3.55;;;;;;;22.62;59.14;100734.61;1798291;79;22605;-45
2022/06/05 08:14:35;;;;;;;4.35;2.30;;;;;;;22.47;59.96;100724.55;1758013;80;20936;-45
2022/06/05 08:17:08;;;;;;;3.37;3.10;;;;;;;22.49;60.15;100723.14;1769002;80;21165;-45
2022/06/05 08:19:38;;;;;;;2.15;1.87;;;;;;;22.52;60.06;100726.90;1778920;79;20933;-46
2022/06/05 08:22:06;;;;;;;5.80;2.08;;;;;;;22.43;61.27;100730.94;1767815;80;20901;-45
2022/06/05 08:24:33;;;;;;;4.28;1.47;;;;;;;22.38;61.75;100729.94;1751058;81;21417;-46
2022/06/05 08:27:00;;;;;;;7.97;2.37;;;;;;;22.45;62.41;100726.90;1765862;80;20928;-45
2022/06/05 08:29:26;;;;;;;7.33;5.60;;;;;;;22.51;61.87;100736.62;1768467;80;21136;-46
2022/06/05 08:31:54;;;;;;;14.75;11.18;;;;;;;22.54;60.94;100738.19;1745231;82;21553;-45
2022/06/05 08:34:21;;;;;;;8.63;4.22;;;;;;;22.49;60.80;100735.87;1749840;82;21462;-45
2022/06/05 08:41:26;;;;;;;4.47;1.80;;;;;;;22.40;60.95;100731.14;1749664;81;21371;-45
2022/06/05 08:42:27;;;;;;;8.18;2.45;;;;;;;22.27;60.78;100735.03;1735973;81;21064;-46
2022/06/05 08:44:58;;;;;;;6.15;2.60;;;;;;;22.26;61.08;100738.61;1749625;82;20955;-46
2022/06/05 08:47:29;;;;;;;2.55;1.62;;;;;;;22.32;61.73;100727.67;1725316;82;20932;-46
2022/06/05 08:50:07;;;;;;;4.85;1.27;;;;;;;22.41;60.16;100726.23;1691526;83;20921;-46
2022/06/05 08:52:50;;;;;;;4.28;1.62;;;;;;;22.39;59.69;100722.86;1748805;82;20928;-46
2022/06/05 08:55:42;;;;;;;2.83;1.50;;;;;;;22.38;60.69;100723.80;1737444;82;21139;-45
2022/06/05 08:58:29;;;;;;;7.28;2.90;;;;;;;22.49;61.28;100730.59;1720464;82;20944;-46
2022/06/05 09:01:02;;;;;;;2.72;1.55;;;;;;;22.53;60.20;100728.13;1728632;82;20956;-45
2022/06/05 09:03:52;;;;;;;4.65;1.92;;;;;;;22.48;60.66;100726.73;1749291;82;20900;-46
2022/06/05 09:06:30;;;;;;;4.05;2.62;;;;;;;22.35;60.82;100723.52;1728582;82;21019;-45
2022/06/05 09:08:57;;;;;;;7.15;2.77;;;;;;;22.21;61.64;100724.39;1715299;83;21177;-45
2022/06/05 09:11:50;;;;;;;7.50;5.35;;;;;;;22.20;61.23;100721.87;1731901;81;20967;-45
2022/06/05 09:14:48;;;;;;;9.15;2.62;;;;;;;22.21;62.31;100726.20;1743332;80;20931;-47
2022/06/05 09:17:19;;;;;;;;;;;;;;;22.16;61.90;100731.75;1729094;81;20947;-45
2022/06/05 09:19:47;;;;;;;7.15;3.52;;;;;;;22.04;61.46;100725.95;1728834;81;20101;-45
2022/06/05 09:22:18;;;;;;;12.60;3.87;;;;;;;21.92;61.87;100719.17;1756474;81;21757;-45
2022/06/05 09:25:12;;;;;;;9.55;2.90;;;;;;;21.88;62.28;100711.58;1756170;81;20892;-45
2022/06/05 09:27:50;;;;;;;9.93;2.10;;;;;;;21.89;62.22;100710.14;1757080;81;21343;-45
2022/06/05 09:30:25;;;;;;;11.12;2.80;;;;;;;21.87;63.02;100716.47;1756688;81;21459;-46
2022/06/05 09:33:06;;;;;;;3.83;1.57;;;;;;;21.82;62.85;100716.26;1749626;81;21557;-46
2022/06/05 09:35:54;;;;;;;12.68;3.67;;;;;;;21.88;62.19;100716.36;1746215;81;21784;-45
2022/06/05 09:38:29;;;;;;;1.75;1.47;;;;;;;21.80;61.80;100714.68;1726609;83;21007;-45
2022/06/05 09:41:37;;;;;;;9.10;1.72;;;;;;;21.74;61.76;100710.63;1729732;81;21006;-46
2022/06/05 09:44:37;;;;;;;6.47;1.85;;;;;;;21.69;62.67;100710.07;1742797;81;21426;-45
2022/06/05 09:47:08;;;;;;;3.70;1.70;;;;;;;21.77;63.09;100712.23;1640846;83;21020;-46
2022/06/05 09:49:51;;;;;;;4.20;1.40;;;;;;;21.84;62.23;100711.36;1737815;81;21236;-45
2022/06/05 09:52:22;;;;;;;4.62;1.55;;;;;;;21.88;62.37;100712.89;1729765;81;21525;-45
2022/06/05 09:55:15;;;;;;;1.60;1.40;;;;;;;21.88;61.99;100715.52;1727759;81;21470;-45
2022/06/05 09:58:26;;;;;;;1.30;1.20;;;;;;;21.85;62.28;100713.05;1727648;83;20972;-46
2022/06/05 10:00:55;;;;;;;5.37;1.85;;;;;;;21.82;62.47;100710.98;1734673;81;20999;-45
2022/06/05 10:03:42;;;;;;;3.12;1.80;;;;;;;21.84;62.44;100706.09;1750437;81;21868;-44
2022/06/05 10:06:28;;;;;;;6.95;2.17;;;;;;;21.80;62.30;100707.60;1729147;81;20971;-44
2022/06/05 10:09:21;;;;;;;4.83;2.08;;;;;;;21.78;62.82;100706.86;1730750;81;21026;-46
2022/06/05 10:12:02;;;;;;;3.72;2.37;;;;;;;21.69;63.11;100698.22;1732856;81;20927;-45
2022/06/05 10:14:47;;;;;;;3.67;3.08;;;;;;;21.65;62.89;100698.86;1716709;82;20921;-45
2022/06/05 10:17:38;;;;;;;6.22;2.20;;;;;;;21.64;64.39;100699.80;1706587;83;21226;-46
2022/06/05 10:20:16;;;;;;;3.72;2.00;;;;;;;21.64;64.60;100698.48;1728677;82;21003;-45
2022/06/05 10:22:52;;;;;;;3.50;1.90;;;;;;;21.65;64.77;100698.86;1723346;82;21501;-46
2022/06/05 10:25:44;;;;;;;3.62;1.60;;;;;;;21.64;64.56;100706.84;1711928;82;21688;-45
2022/06/05 10:28:27;;;;;;;1.57;1.40;;;;;;;21.61;64.67;100707.03;1714254;82;20910;-45
2022/06/05 10:31:01;;;;;;;2.20;1.50;;;;;;;21.50;65.06;100711.16;1700527;82;21077;-45
2022/06/05 10:33:53;;;;;;;1.62;1.25;;;;;;;21.41;65.58;100713.48;1726933;82;20969;-45
2022/06/05 10:36:23;;;;;;;2.62;1.50;;;;;;;21.32;66.30;100710.48;1720979;82;20968;-45
2022/06/05 10:39:20;;;;;;;2.83;1.20;;;;;;;21.21;67.68;100711.57;1706704;83;21352;-45
2022/06/05 10:41:56;;;;;;;2.10;1.30;;;;;;;21.15;68.13;100714.13;1717041;82;21406;-45
2022/06/05 10:44:37;;;;;;;3.52;1.20;;;;;;;21.08;69.07;100716.71;1720325;82;21266;-45
2022/06/05 10:47:31;;;;;;;4.42;1.50;;;;;;;21.00;69.48;100712.38;1715398;82;20996;-45
2022/06/05 10:50:18;;;;;;;1.90;1.30;;;;;;;20.93;70.55;100717.14;1723570;82;20881;-45
2022/06/05 10:53:06;;;;;;;3.90;3.12;;;;;;;20.79;72.46;100717.48;1725062;82;20968;-45
2022/06/05 10:56:13;;;;;;;7.78;3.52;;;;;;;20.68;73.14;100718.06;1713735;82;20862;-45
2022/06/05 10:58:51;;;;;;;13.25;7.80;;;;;;;20.56;75.59;100719.23;1714755;82;21177;-45
2022/06/05 11:01:57;;;;;;;15.25;6.60;;;;;;;20.48;78.50;100718.34;1717620;82;21376;-45
2022/06/05 11:05:12;;;;;;;21.05;11.20;;;;;;;20.44;79.88;100712.88;1733736;82;20921;-45
2022/06/05 11:08:12;;;;;;;11.30;4.95;;;;;;;20.36;81.21;100706.28;1709448;82;21471;-45
2022/06/05 11:14:32;;;;;;;9.83;3.15;;;;;;;20.21;88.02;100697.47;1749693;81;21162;-45
2022/06/05 11:17:36;;;;;;;8.98;2.92;;;;;;;20.20;89.61;100692.28;1731059;82;21609;-45
2022/06/05 11:20:16;;;;;;;8.33;2.87;;;;;;;20.24;91.19;100692.48;1740453;82;20932;-45
2022/06/05 11:22:58;;;;;;;3.52;1.85;;;;;;;20.24;91.24;100692.48;1730789;82;20952;-45
2022/06/05 11:25:32;;;;;;;9.48;2.40;;;;;;;20.19;88.76;100690.11;1727895;82;21524;-46
2022/06/05 11:28:25;;;;;;;7.53;2.07;;;;;;;20.19;88.24;100686.65;1678321;84;21847;-45
2022/06/05 11:31:15;;;;;;;3.67;1.95;;;;;;;20.14;88.30;100684.27;1686422;83;20947;-46
2022/06/05 11:33:54;;;;;;;1.82;1.60;;;;;;;20.05;89.61;100685.61;1729243;82;21033;-44
2022/06/05 11:36:35;;;;;;;262.00;121.80;;;;;;;19.97;89.66;100681.25;1745303;82;20952;-45
2022/06/05 11:39:38;;;;;;;7.42;3.83;;;;;;;19.90;88.64;100688.58;1726280;81;20956;-45
2022/06/05 11:42:25;;;;;;;2.65;1.52;;;;;;;19.91;86.73;100686.36;1729856;82;21145;-45
2022/06/05 11:45:07;;;;;;;2.95;1.67;;;;;;;20.06;83.48;100689.10;1725561;81;21003;-45
2022/06/05 11:47:51;;;;;;;4.10;1.37;;;;;;;20.28;81.94;100686.61;1736793;82;20975;-44
2022/06/05 11:50:32;;;;;;;2.77;1.67;;;;;;;20.51;81.65;100681.36;1737552;82;20893;-45
2022/06/05 11:53:20;;;;;;;3.05;1.27;;;;;;;20.77;83.22;100692.16;1647647;86;21051;-45
2022/06/05 11:56:15;;;;;;;22.17;7.30;;;;;;;20.99;82.35;100689.63;1748068;80;21234;-45
2022/06/05 11:59:09;;;;;;;8.58;4.17;;;;;;;21.20;80.74;100692.77;1730541;82;20948;-45
2022/06/05 12:01:43;;;;;;;3.35;2.60;;;;;;;21.42;76.37;100692.34;1716087;82;21547;-45
2022/06/05 12:04:39;;;;;;;4.83;2.65;;;;;;;21.54;74.49;100682.38;1712443;82;20952;-44
2022/06/05 12:07:06;;;;;;;4.42;2.65;;;;;;;21.68;70.83;100678.92;1715071;82;21029;-44
2022/06/05 12:09:43;;;;;;;5.70;2.35;;;;;;;21.94;72.58;100676.93;1723370;82;21435;-44
2022/06/05 12:12:18;;;;;;;5.40;2.23;;;;;;;22.15;69.27;100677.34;1715548;82;20909;-46
2022/06/05 12:15:21;;;;;;;3.35;2.27;;;;;;;22.28;68.69;100680.04;1719939;82;21562;-44
2022/06/05 12:17:57;;;;;;;7.78;2.83;;;;;;;22.41;70.26;100687.17;1709845;82;20952;-44
2022/06/05 12:20:39;;;;;;;3.35;2.50;;;;;;;22.55;70.01;100684.50;1723475;82;21036;-44